LOW weather

Louisa County Airport/Freeman Field
Louisa, Virginia, United States

Public forecast

Using degrees Fahrenheit for public forecast. Weather courtesy of forecast.io.

Current aviation weather report (METAR) for Louisa County Airport/Freeman Field

Retrieved 2020/04/05 16:35 UTC (11 minutes ago):

KLKU 051635Z AUTO 21005KT 10SM CLR 18/07 A3012 RMK AO2 T01830073

Closest aviation forecast (TAF) to Louisa County Airport/Freeman Field

Closest forecast is Charlottesville Albemarle Airport, 24.1 nm (44.6 km) WNW. Retrieved 2020/04/05 12:33 UTC (4 hours ago):

TAF KCHO 051131Z 0512/0612 23003KT P6SM SCT050 FM052200 20004KT P6SM BKN090 FM060000 VRB03KT P6SM SCT070 FM060800 00000KT 5SM BR SCT035 FM060900 00000KT 4SM BR SCT020 FM061000 00000KT 4SM BR SCT008